createdAt,value
2024-04-13T00:02:20.194Z,99527.60
2024-04-13T00:04:47.622Z,99523.66
2024-04-13T00:07:14.937Z,99521.66
2024-04-13T00:09:42.139Z,99522.95
2024-04-13T00:12:09.365Z,99520.63
2024-04-13T00:14:36.579Z,99518.20
2024-04-13T00:17:04.458Z,99515.37
2024-04-13T00:19:34.735Z,99519.99
2024-04-13T00:22:02.042Z,99514.60
2024-04-13T00:24:29.392Z,99514.77
2024-04-13T00:26:56.852Z,99507.25
2024-04-13T00:29:24.110Z,99504.58
2024-04-13T00:31:51.365Z,99502.82
2024-04-13T00:34:19.004Z,99505.48
2024-04-13T00:36:47.982Z,99505.00
2024-04-13T00:39:15.567Z,99506.57
2024-04-13T00:41:42.931Z,99505.36
2024-04-13T00:44:10.123Z,99503.52
2024-04-13T00:46:41.002Z,99504.31
2024-04-13T00:49:15.076Z,99501.29
2024-04-13T00:51:45.117Z,99504.02
2024-04-13T00:54:17.761Z,99499.05
2024-04-13T00:56:45.736Z,99499.39
2024-04-13T00:59:12.997Z,99490.38
2024-04-13T01:01:40.288Z,99484.36
2024-04-13T01:04:10.210Z,99491.45
2024-04-13T01:06:39.631Z,99486.65
2024-04-13T01:09:08.191Z,99480.90
2024-04-13T01:11:39.644Z,99484.50
2024-04-13T01:14:08.926Z,99482.19
2024-04-13T01:16:36.666Z,99475.52
2024-04-13T01:19:06.092Z,99478.10
2024-04-13T01:21:34.288Z,99477.94
2024-04-13T01:24:05.334Z,99484.80
2024-04-13T01:26:39.737Z,99481.90
2024-04-13T01:29:07.499Z,99477.02
2024-04-13T01:31:36.185Z,99478.27
2024-04-13T01:34:06.381Z,99474.78
2024-04-13T01:36:40.872Z,99479.07
2024-04-13T01:39:09.743Z,99478.95
2024-04-13T01:41:38.303Z,99476.34
2024-04-13T01:44:07.091Z,99473.41
2024-04-13T01:46:37.430Z,99472.47
2024-04-13T01:49:05.955Z,99471.48
2024-04-13T01:51:33.732Z,99466.94
2024-04-13T01:54:01.681Z,99464.81
2024-04-13T01:56:28.920Z,99457.30
2024-04-13T01:58:56.467Z,99455.78
2024-04-13T02:01:24.089Z,99454.17
2024-04-13T02:03:52.104Z,99451.29
2024-04-13T02:06:19.558Z,99451.57
2024-04-13T02:08:47.643Z,99454.52
2024-04-13T02:11:14.884Z,99450.30
2024-04-13T02:13:42.168Z,99449.59
2024-04-13T02:16:09.697Z,99445.77
2024-04-13T02:18:38.400Z,99447.02
2024-04-13T02:21:06.799Z,99446.97
2024-04-13T02:23:36.613Z,99446.71
2024-04-13T02:26:04.074Z,99445.89
2024-04-13T02:28:31.428Z,99443.81
2024-04-13T02:30:58.671Z,99443.96
2024-04-13T02:33:26.101Z,99440.38
2024-04-13T02:36:04.481Z,99442.94
2024-04-13T02:38:33.404Z,99440.98
2024-04-13T02:41:01.216Z,99439.29
2024-04-13T02:43:32.398Z,99441.81
2024-04-13T02:46:05.579Z,99440.33
2024-04-13T02:48:32.908Z,99440.52
2024-04-13T02:51:00.227Z,99442.59
2024-04-13T02:53:27.475Z,99437.33
2024-04-13T02:55:54.739Z,99442.01
2024-04-13T03:00:57.275Z,99446.05
2024-04-13T03:03:25.167Z,99442.55
2024-04-13T03:06:00.758Z,99440.71
2024-04-13T03:08:28.262Z,99441.42
2024-04-13T03:11:01.621Z,99438.77
2024-04-13T03:13:29.528Z,99438.40
2024-04-13T03:16:07.895Z,99436.50
2024-04-13T03:18:35.696Z,99435.75
2024-04-13T03:21:03.519Z,99436.79
2024-04-13T03:23:32.773Z,99433.10
2024-04-13T03:26:00.268Z,99430.84
2024-04-13T03:28:29.382Z,99433.38
2024-04-13T03:30:56.994Z,99431.92
2024-04-13T03:33:24.952Z,99434.80
2024-04-13T03:35:52.386Z,99430.48
2024-04-13T03:38:19.613Z,99431.84
2024-04-13T03:40:47.583Z,99431.45
2024-04-13T03:43:15.699Z,99432.08
2024-04-13T03:45:43.686Z,99432.64
2024-04-13T03:48:11.881Z,99433.86
2024-04-13T03:50:42.637Z,99434.77
2024-04-13T03:53:09.889Z,99437.13
2024-04-13T03:55:37.254Z,99436.97
2024-04-13T03:58:04.688Z,99435.69
2024-04-13T04:00:32.422Z,99437.19
2024-04-13T04:02:59.665Z,99434.64
2024-04-13T04:05:28.487Z,99433.60
2024-04-13T04:07:55.712Z,99435.02
2024-04-13T04:10:23.733Z,99427.61
2024-04-13T04:12:51.093Z,99433.49
2024-04-13T04:15:18.438Z,99434.77
2024-04-13T04:17:45.708Z,99434.25
2024-04-13T04:20:14.208Z,99435.23
2024-04-13T04:22:41.952Z,99441.44
2024-04-13T04:25:09.514Z,99438.33
2024-04-13T04:27:36.815Z,99434.95
2024-04-13T04:30:04.794Z,99431.94
2024-04-13T04:32:32.355Z,99436.04
2024-04-13T04:34:59.749Z,99435.36
2024-04-13T04:37:26.947Z,99433.60
2024-04-13T04:39:54.178Z,99437.27
2024-04-13T04:42:21.414Z,99441.16
2024-04-13T04:44:48.768Z,99441.89
2024-04-13T04:47:16.510Z,99437.17
2024-04-13T04:49:43.802Z,99442.55
2024-04-13T04:52:11.011Z,99434.73
2024-04-13T04:54:39.107Z,99440.11
2024-04-13T04:57:06.563Z,99437.79
2024-04-13T04:59:34.596Z,99437.02
2024-04-13T05:02:02.024Z,99439.27
2024-04-13T05:04:29.359Z,99440.63
2024-04-13T05:06:56.797Z,99432.05
2024-04-13T05:09:24.516Z,99431.11
2024-04-13T05:11:51.750Z,99425.66
2024-04-13T05:14:19.811Z,99427.66
2024-04-13T05:16:47.872Z,99424.20
2024-04-13T05:19:15.319Z,99424.22
2024-04-13T05:21:43.336Z,99421.54
2024-04-13T05:24:10.721Z,99417.74
2024-04-13T05:26:38.049Z,99412.90
2024-04-13T05:29:05.473Z,99411.23
2024-04-13T05:31:32.650Z,99414.20
2024-04-13T05:33:59.877Z,99411.59
2024-04-13T05:36:28.991Z,99411.98
2024-04-13T05:38:56.298Z,99406.64
2024-04-13T05:41:23.459Z,99402.16
2024-04-13T05:43:50.704Z,99398.45
2024-04-13T05:46:17.913Z,99396.79
2024-04-13T05:48:45.464Z,99393.34
2024-04-13T05:51:13.279Z,99393.86
2024-04-13T05:53:40.717Z,99391.86
2024-04-13T05:56:09.777Z,99394.80
2024-04-13T05:58:36.995Z,99396.03
2024-04-13T06:01:05.899Z,99398.02
2024-04-13T06:03:34.832Z,99395.38
2024-04-13T06:06:02.313Z,99394.02
2024-04-13T06:08:29.653Z,99393.33
2024-04-13T06:10:56.879Z,99388.75
2024-04-13T06:13:24.263Z,99393.40
2024-04-13T06:15:51.496Z,99394.36
2024-04-13T06:18:19.872Z,99388.39
2024-04-13T06:20:47.527Z,99389.44
2024-04-13T06:23:14.791Z,99392.27
2024-04-13T06:25:46.439Z,99392.83
2024-04-13T06:28:13.624Z,99387.98
2024-04-13T06:30:46.901Z,99385.14
2024-04-13T06:33:14.884Z,99385.50
2024-04-13T06:35:42.195Z,99382.37
2024-04-13T06:38:10.066Z,99381.08
2024-04-13T06:40:37.258Z,99378.23
2024-04-13T06:43:05.071Z,99379.09
2024-04-13T06:45:32.313Z,99372.34
2024-04-13T06:47:59.609Z,99375.66
2024-04-13T06:50:27.249Z,99370.92
2024-04-13T06:52:54.648Z,99365.33
2024-04-13T06:55:21.911Z,99361.33
2024-04-13T06:57:49.434Z,99361.10
2024-04-13T07:00:16.981Z,99360.06
2024-04-13T07:02:46.611Z,99358.94
2024-04-13T07:05:14.453Z,99355.06
2024-04-13T07:07:41.631Z,99357.23
2024-04-13T07:10:09.762Z,99353.16
2024-04-13T07:12:36.982Z,99351.27
2024-04-13T07:15:06.229Z,99350.83
2024-04-13T07:17:33.443Z,99350.47
2024-04-13T07:20:00.631Z,99347.47
2024-04-13T07:22:27.909Z,99339.36
2024-04-13T07:24:55.172Z,99341.72
2024-04-13T07:27:22.544Z,99350.25
2024-04-13T07:29:49.948Z,99345.91
2024-04-13T07:32:17.168Z,99337.52
2024-04-13T07:34:44.386Z,99339.62
2024-04-13T07:37:11.969Z,99333.73
2024-04-13T07:39:39.340Z,99329.87
2024-04-13T07:42:06.771Z,99334.76
2024-04-13T07:44:33.993Z,99337.58
2024-04-13T07:47:01.366Z,99332.73
2024-04-13T07:49:28.699Z,99330.31
2024-04-13T07:51:56.169Z,99328.56
2024-04-13T07:54:23.511Z,99329.77
2024-04-13T07:56:51.019Z,99334.46
2024-04-13T07:59:18.257Z,99324.98
2024-04-13T08:01:47.145Z,99326.28
2024-04-13T08:04:14.929Z,99330.25
2024-04-13T08:06:42.455Z,99322.52
2024-04-13T08:09:09.895Z,99322.31
2024-04-13T08:11:37.204Z,99322.83
2024-04-13T08:14:08.792Z,99324.80
2024-04-13T08:16:36.262Z,99318.60
2024-04-13T08:19:03.573Z,99317.73
2024-04-13T08:21:30.837Z,99316.61
2024-04-13T08:23:58.246Z,99312.09
2024-04-13T08:26:25.651Z,99305.13
2024-04-13T08:28:52.956Z,99302.39
2024-04-13T08:31:20.307Z,99305.93
2024-04-13T08:33:47.690Z,99306.16
2024-04-13T08:36:15.167Z,99295.10
2024-04-13T08:38:42.472Z,99293.12
2024-04-13T08:41:13.881Z,99297.83
2024-04-13T08:43:41.214Z,99284.80
2024-04-13T08:46:11.362Z,99289.33
2024-04-13T08:48:39.482Z,99282.58
2024-04-13T08:51:07.728Z,99283.80
2024-04-13T08:53:35.323Z,99280.75
2024-04-13T08:56:04.371Z,99281.52
2024-04-13T08:58:32.407Z,99282.46
2024-04-13T09:01:02.831Z,99279.84
2024-04-13T09:03:30.418Z,99273.56
2024-04-13T09:05:58.158Z,99269.86
2024-04-13T09:08:25.680Z,99272.94
2024-04-13T09:10:54.377Z,99265.02
2024-04-13T09:13:22.170Z,99270.08
2024-04-13T09:15:49.540Z,99267.23
2024-04-13T09:18:17.063Z,99265.23
2024-04-13T09:20:44.743Z,99257.48
2024-04-13T09:23:12.105Z,99246.10
2024-04-13T09:25:39.474Z,99240.98
2024-04-13T09:28:06.840Z,99245.25
2024-04-13T09:30:34.253Z,99246.59
2024-04-13T09:33:04.468Z,99240.18
2024-04-13T09:35:31.871Z,99237.95
2024-04-13T09:37:59.745Z,99228.56
2024-04-13T09:40:27.608Z,99225.23
2024-04-13T09:42:57.889Z,99225.23
2024-04-13T09:45:25.684Z,99214.54
2024-04-13T09:47:56.850Z,99201.31
2024-04-13T09:50:27.281Z,99204.24
2024-04-13T09:52:54.799Z,99201.23
2024-04-13T09:55:22.560Z,99195.09
2024-04-13T09:57:51.464Z,99192.09
2024-04-13T10:00:18.965Z,99191.20
2024-04-13T10:02:46.455Z,99193.38
2024-04-13T10:05:14.087Z,99194.09
2024-04-13T10:07:41.518Z,99182.72
2024-04-13T10:10:14.422Z,99194.98
2024-04-13T10:12:42.378Z,99188.60
2024-04-13T10:15:10.890Z,99188.73
2024-04-13T10:17:39.508Z,99179.55
2024-04-13T10:20:08.017Z,99178.31
2024-04-13T10:22:38.567Z,99175.23
2024-04-13T10:25:07.914Z,99170.16
2024-04-13T10:27:35.805Z,99174.69
2024-04-13T10:30:04.576Z,99171.71
2024-04-13T10:32:32.286Z,99170.30
2024-04-13T10:35:10.227Z,99165.86
2024-04-13T10:37:37.880Z,99164.34
2024-04-13T10:40:06.753Z,99159.62
2024-04-13T10:42:44.562Z,99161.77
2024-04-13T10:45:16.722Z,99160.70
2024-04-13T10:47:44.523Z,99152.30
2024-04-13T10:50:16.036Z,99153.30
2024-04-13T10:52:43.456Z,99148.67
2024-04-13T10:55:19.019Z,99141.43
2024-04-13T10:57:48.977Z,99134.76
2024-04-13T11:00:16.472Z,99128.86
2024-04-13T11:02:44.633Z,99122.33
2024-04-13T11:05:16.348Z,99126.09
2024-04-13T11:07:43.997Z,99123.40
2024-04-13T11:10:11.494Z,99119.16
2024-04-13T11:12:38.803Z,99122.44
2024-04-13T11:15:07.129Z,99113.30
2024-04-13T11:17:35.610Z,99117.20
2024-04-13T11:20:03.064Z,99107.77
2024-04-13T11:22:30.388Z,99109.80
2024-04-13T11:24:57.779Z,99108.52
2024-04-13T11:27:25.348Z,99104.00
2024-04-13T11:29:53.071Z,99102.45
2024-04-13T11:32:20.381Z,99094.13
2024-04-13T11:34:47.668Z,99091.52
2024-04-13T11:37:17.776Z,99090.88
2024-04-13T11:39:46.925Z,99088.41
2024-04-13T11:42:14.645Z,99083.41
2024-04-13T11:44:42.212Z,99083.36
2024-04-13T11:47:09.922Z,99086.43
2024-04-13T11:49:41.542Z,99080.20
2024-04-13T11:52:18.672Z,99079.04
2024-04-13T11:54:47.095Z,99073.55
2024-04-13T11:57:14.762Z,99078.01
2024-04-13T11:59:42.425Z,99070.91
2024-04-13T12:02:09.800Z,99050.38
2024-04-13T12:04:37.284Z,99058.91
2024-04-13T12:07:05.664Z,99058.39
2024-04-13T12:09:33.065Z,99058.81
2024-04-13T12:12:02.712Z,99055.48
2024-04-13T12:14:39.690Z,99058.29
2024-04-13T12:17:17.872Z,99055.79
2024-04-13T12:19:46.310Z,99046.45
2024-04-13T12:22:13.717Z,99053.27
2024-04-13T12:24:41.117Z,99055.33
2024-04-13T12:27:08.434Z,99050.92
2024-04-13T12:29:35.723Z,99047.54
2024-04-13T12:32:04.236Z,99048.13
2024-04-13T12:34:31.559Z,99052.06
2024-04-13T12:36:59.514Z,99050.92
2024-04-13T12:39:28.548Z,99042.88
2024-04-13T12:41:57.404Z,99047.06
2024-04-13T12:44:25.406Z,99041.27
2024-04-13T12:46:52.653Z,99046.61
2024-04-13T12:49:20.644Z,99041.03
2024-04-13T12:51:48.081Z,99038.39
2024-04-13T12:54:15.461Z,99039.91
2024-04-13T12:56:44.084Z,99030.77
2024-04-13T12:59:11.348Z,99019.76
2024-04-13T13:01:39.974Z,99023.55
2024-04-13T13:04:07.726Z,99029.52
2024-04-13T13:06:35.190Z,99017.19
2024-04-13T13:09:02.455Z,99021.25
2024-04-13T13:11:29.840Z,99023.55
2024-04-13T13:13:57.215Z,99019.41
2024-04-13T13:16:24.623Z,99024.70
2024-04-13T13:18:52.099Z,99021.92
2024-04-13T13:21:19.877Z,99019.55
2024-04-13T13:23:47.151Z,99018.98
2024-04-13T13:26:14.541Z,99014.77
2024-04-13T13:28:41.909Z,99021.09
2024-04-13T13:31:09.214Z,99011.03
2024-04-13T13:33:36.755Z,99002.20
2024-04-13T13:36:05.273Z,99006.61
2024-04-13T13:38:32.616Z,99006.39
2024-04-13T13:40:59.918Z,99005.52
2024-04-13T13:43:27.529Z,99004.12
2024-04-13T13:45:54.883Z,99008.53
2024-04-13T13:48:22.402Z,98999.02
2024-04-13T13:50:49.829Z,99000.35
2024-04-13T13:53:17.053Z,98996.16
2024-04-13T13:55:44.527Z,98998.77
2024-04-13T13:58:11.766Z,98992.39
2024-04-13T14:00:40.234Z,99001.88
2024-04-13T14:03:11.035Z,98996.23
2024-04-13T14:05:38.661Z,98991.21
2024-04-13T14:08:06.818Z,98995.04
2024-04-13T14:10:34.213Z,99001.63
2024-04-13T14:13:01.576Z,98990.68
2024-04-13T14:15:31.059Z,98987.74
2024-04-13T14:17:58.382Z,98981.91
2024-04-13T14:20:26.157Z,98978.40
2024-04-13T14:22:53.825Z,98978.17
2024-04-13T14:25:21.288Z,98978.83
2024-04-13T14:27:48.658Z,98975.80
2024-04-13T14:30:16.436Z,98970.98
2024-04-13T14:32:43.851Z,98966.50
2024-04-13T14:35:11.643Z,98961.27
2024-04-13T14:37:38.898Z,98961.90
2024-04-13T14:40:07.372Z,98959.71
2024-04-13T14:42:34.721Z,98964.00
2024-04-13T14:45:02.168Z,98950.07
2024-04-13T14:47:29.614Z,98955.25
2024-04-13T14:49:57.060Z,98946.94
2024-04-13T14:52:24.440Z,98942.91
2024-04-13T14:54:51.743Z,98945.14
2024-04-13T14:57:19.143Z,98944.11
2024-04-13T14:59:46.512Z,98943.01
2024-04-13T15:02:13.835Z,98944.44
2024-04-13T15:04:41.471Z,98925.05
2024-04-13T15:07:09.520Z,98944.02
2024-04-13T15:09:36.793Z,98944.16
2024-04-13T15:12:04.834Z,98950.69
2024-04-13T15:14:32.092Z,98945.77
2024-04-13T15:18:27.933Z,98952.54
2024-04-13T15:20:59.476Z,98956.90
2024-04-13T15:23:26.795Z,98945.88
2024-04-13T15:25:54.947Z,98956.20
2024-04-13T15:28:22.369Z,98950.84
2024-04-13T15:30:49.935Z,98945.65
2024-04-13T15:33:17.680Z,98951.71
2024-04-13T15:35:45.330Z,98943.52
2024-04-13T15:38:13.086Z,98934.19
2024-04-13T15:40:40.606Z,98951.59
2024-04-13T15:43:07.937Z,98953.71
2024-04-13T15:45:35.204Z,98941.52
2024-04-13T15:48:02.754Z,98948.41
2024-04-13T15:50:30.147Z,98952.91
2024-04-13T15:52:58.351Z,98946.73
2024-04-13T15:55:26.786Z,98949.88
2024-04-13T15:57:54.766Z,98952.46
2024-04-13T16:00:22.379Z,98956.97
2024-04-13T16:02:49.799Z,98950.59
2024-04-13T16:05:17.195Z,98941.30
2024-04-13T16:07:44.581Z,98944.74
2024-04-13T16:10:11.961Z,98954.30
2024-04-13T16:12:39.758Z,98956.50
2024-04-13T16:15:10.009Z,98946.67
2024-04-13T16:17:37.341Z,98955.74
2024-04-13T16:20:06.387Z,98953.41
2024-04-13T16:22:33.940Z,98965.63
2024-04-13T16:25:01.589Z,98964.73
2024-04-13T16:27:29.493Z,98971.40
2024-04-13T16:29:56.724Z,98969.92
2024-04-13T16:32:24.047Z,98972.73
2024-04-13T16:34:51.309Z,98973.20
2024-04-13T16:37:18.535Z,98970.59
2024-04-13T16:39:45.859Z,98975.75
2024-04-13T16:42:13.255Z,98975.77
2024-04-13T16:44:40.594Z,98975.54
2024-04-13T16:47:07.839Z,98975.75
2024-04-13T16:49:35.095Z,98982.70
2024-04-13T16:52:02.379Z,98988.48
2024-04-13T16:54:29.946Z,98986.29
2024-04-13T16:56:57.236Z,98993.66
2024-04-13T16:59:25.470Z,98989.00
2024-04-13T17:01:52.769Z,98995.77
2024-04-13T17:04:20.080Z,98996.71
2024-04-13T17:06:48.032Z,98997.41
2024-04-13T17:09:19.291Z,98998.88
2024-04-13T17:11:46.680Z,98997.55
2024-04-13T17:14:14.365Z,98991.55
2024-04-13T17:16:41.632Z,99001.36
2024-04-13T17:19:08.867Z,99002.90
2024-04-13T17:21:36.395Z,99001.41
2024-04-13T17:24:04.184Z,99003.38
2024-04-13T17:26:31.534Z,99012.23
2024-04-13T17:28:58.720Z,99015.08
2024-04-13T17:31:26.048Z,99016.44
2024-04-13T17:33:53.397Z,99015.98
2024-04-13T17:36:21.497Z,99018.14
2024-04-13T17:38:49.391Z,99020.02
2024-04-13T17:41:16.810Z,99020.64
2024-04-13T17:43:44.257Z,99024.66
2024-04-13T17:46:11.602Z,99022.73
2024-04-13T17:48:39.104Z,99025.95
2024-04-13T17:51:07.330Z,99026.63
2024-04-13T17:53:34.972Z,99031.36
2024-04-13T17:56:02.224Z,99032.17
2024-04-13T17:58:29.462Z,99037.20
2024-04-13T18:00:56.820Z,99036.05
2024-04-13T18:03:24.318Z,99037.52
2024-04-13T18:05:51.689Z,99039.05
2024-04-13T18:08:19.005Z,99037.37
2024-04-13T18:10:46.265Z,99035.73
2024-04-13T18:13:13.580Z,99035.04
2024-04-13T18:15:40.971Z,99037.30
2024-04-13T18:18:09.506Z,99037.03
2024-04-13T18:20:36.839Z,99039.98
2024-04-13T18:23:04.223Z,99041.02
2024-04-13T18:25:34.555Z,99040.81
2024-04-13T18:28:01.885Z,99042.52
2024-04-13T18:30:29.288Z,99037.41
2024-04-13T18:32:56.685Z,99039.33
2024-04-13T18:35:24.105Z,99038.29
2024-04-13T18:37:51.419Z,99039.80
2024-04-13T18:40:18.737Z,99041.35
2024-04-13T18:42:45.990Z,99044.05
2024-04-13T18:45:13.998Z,99044.58
2024-04-13T18:47:42.196Z,99043.77
2024-04-13T18:50:11.460Z,99046.05
2024-04-13T18:52:38.708Z,99045.38
2024-04-13T18:55:12.369Z,99042.27
2024-04-13T18:57:40.923Z,99041.05
2024-04-13T19:00:08.962Z,99044.84
2024-04-13T19:02:36.167Z,99045.42
2024-04-13T19:05:03.628Z,99043.48
2024-04-13T19:07:30.974Z,99042.51
2024-04-13T19:09:58.278Z,99041.59
2024-04-13T19:12:27.293Z,99042.84
2024-04-13T19:14:54.768Z,99045.33
2024-04-13T19:17:22.020Z,99043.81
2024-04-13T19:19:50.899Z,99045.81
2024-04-13T19:22:18.170Z,99044.85
2024-04-13T19:24:45.373Z,99044.67
2024-04-13T19:27:12.795Z,99041.48
2024-04-13T19:29:40.425Z,99039.99
2024-04-13T19:32:07.974Z,99038.34
2024-04-13T19:34:35.242Z,99040.56
2024-04-13T19:37:03.454Z,99034.59
2024-04-13T19:39:30.928Z,99039.77
2024-04-13T19:42:00.806Z,99041.10
2024-04-13T19:44:28.721Z,99042.59
2024-04-13T19:46:55.955Z,99038.07
2024-04-13T19:49:23.192Z,99040.23
2024-04-13T19:51:50.542Z,99051.11
2024-04-13T19:54:17.876Z,99049.13
2024-04-13T19:56:45.130Z,99050.61
2024-04-13T19:59:12.491Z,99046.31
2024-04-13T20:01:41.500Z,99046.45
2024-04-13T20:04:08.895Z,99045.21
2024-04-13T20:06:36.236Z,99045.42
2024-04-13T20:09:04.665Z,99045.46
2024-04-13T20:11:32.618Z,99043.53
2024-04-13T20:14:00.425Z,99041.81
2024-04-13T20:16:46.491Z,99043.63
2024-04-13T20:19:13.856Z,99042.61
2024-04-13T20:21:41.106Z,99043.81
2024-04-13T20:24:08.489Z,99046.23
2024-04-13T20:26:35.719Z,99044.75
2024-04-13T20:29:03.003Z,99047.29
2024-04-13T20:31:30.264Z,99043.78
2024-04-13T20:33:57.532Z,99040.80
2024-04-13T20:36:24.818Z,99039.25
2024-04-13T20:38:52.296Z,99038.86
2024-04-13T20:41:19.514Z,99043.48
2024-04-13T20:43:47.314Z,99037.92
2024-04-13T20:46:14.589Z,99040.61
2024-04-13T20:48:41.998Z,99035.09
2024-04-13T20:51:09.316Z,99034.95
2024-04-13T20:53:36.676Z,99042.38
2024-04-13T20:56:04.873Z,99038.48
2024-04-13T20:58:32.034Z,99042.77
2024-04-13T21:01:02.293Z,99043.02
2024-04-13T21:03:30.574Z,99041.53
2024-04-13T21:05:57.967Z,99037.23
2024-04-13T21:08:25.393Z,99036.86
2024-04-13T21:10:52.632Z,99039.53
2024-04-13T21:13:20.148Z,99036.10
2024-04-13T21:15:48.338Z,99033.11
2024-04-13T21:18:16.729Z,99039.05
2024-04-13T21:20:44.064Z,99038.44
2024-04-13T21:23:12.105Z,99038.04
2024-04-13T21:25:39.549Z,99035.02
2024-04-13T21:28:07.881Z,99030.52
2024-04-13T21:30:38.644Z,99029.48
2024-04-13T21:33:06.052Z,99035.80
2024-04-13T21:35:33.301Z,99037.23
2024-04-13T21:38:00.655Z,99035.42
2024-04-13T21:40:27.919Z,99040.66
2024-04-13T21:42:55.405Z,99039.96
2024-04-13T21:45:22.946Z,99046.19
2024-04-13T21:47:50.320Z,99052.54
2024-04-13T21:50:18.050Z,99039.52
2024-04-13T21:52:45.260Z,99043.40
2024-04-13T21:55:12.462Z,99040.34
2024-04-13T21:57:39.650Z,99041.34
2024-04-13T22:00:08.677Z,99043.45
2024-04-13T22:02:40.999Z,99041.45
2024-04-13T22:05:09.879Z,99041.86
2024-04-13T22:07:37.046Z,99037.55
2024-04-13T22:10:04.510Z,99035.87
2024-04-13T22:12:31.953Z,99036.13
2024-04-13T22:14:59.373Z,99038.08
2024-04-13T22:17:26.635Z,99039.70
2024-04-13T22:19:54.097Z,99040.25
2024-04-13T22:22:22.590Z,99041.33
2024-04-13T22:24:50.098Z,99041.25
2024-04-13T22:27:17.417Z,99047.61
2024-04-13T22:29:44.600Z,99043.73
2024-04-13T22:32:11.789Z,99047.83
2024-04-13T22:34:38.986Z,99049.19
2024-04-13T22:37:06.390Z,99052.27
2024-04-13T22:39:34.308Z,99051.19
2024-04-13T22:42:02.830Z,99058.71
2024-04-13T22:44:30.597Z,99060.72
2024-04-13T22:46:57.883Z,99057.61
2024-04-13T22:49:25.890Z,99064.95
2024-04-13T22:51:53.254Z,99066.35
2024-04-13T22:54:20.653Z,99068.89
2024-04-13T22:56:47.862Z,99076.39
2024-04-13T22:59:15.069Z,99079.19
2024-04-13T23:01:42.286Z,99081.84
2024-04-13T23:04:09.663Z,99081.17
2024-04-13T23:06:37.739Z,99080.48
2024-04-13T23:09:05.009Z,99080.09
2024-04-13T23:11:32.258Z,99076.96
2024-04-13T23:14:00.896Z,99078.05
2024-04-13T23:16:31.190Z,99080.34
2024-04-13T23:18:59.711Z,99080.98
2024-04-13T23:21:27.167Z,99082.48
2024-04-13T23:23:56.584Z,99078.65
2024-04-13T23:26:24.056Z,99076.34
2024-04-13T23:28:51.223Z,99074.69
2024-04-13T23:31:18.478Z,99076.94
2024-04-13T23:33:46.396Z,99074.62
2024-04-13T23:36:13.585Z,99075.30
2024-04-13T23:38:40.765Z,99078.10
2024-04-13T23:41:07.952Z,99079.80
2024-04-13T23:43:35.126Z,99080.72
2024-04-13T23:46:03.321Z,99077.17
2024-04-13T23:48:31.093Z,99072.43
2024-04-13T23:50:58.343Z,99072.33
2024-04-13T23:53:25.685Z,99074.45
2024-04-13T23:55:52.939Z,99075.80
2024-04-13T23:58:22.436Z,99075.39
